sensor_id;sensor_type;location;lat;lon;timestamp;temperature;humidity
49413;DHT22;35493;50.276;9.372;2023-05-19T00:00:05;11.20;69.70
49413;DHT22;35493;50.276;9.372;2023-05-19T00:02:37;11.20;69.70
49413;DHT22;35493;50.276;9.372;2023-05-19T00:05:06;11.20;69.90
49413;DHT22;35493;50.276;9.372;2023-05-19T00:07:38;11.20;70.20
49413;DHT22;35493;50.276;9.372;2023-05-19T00:10:05;11.10;70.50
49413;DHT22;35493;50.276;9.372;2023-05-19T00:12:33;11.10;70.70
49413;DHT22;35493;50.276;9.372;2023-05-19T00:15:01;11.10;70.70
49413;DHT22;35493;50.276;9.372;2023-05-19T00:17:30;11.00;70.90
49413;DHT22;35493;50.276;9.372;2023-05-19T00:20:01;11.00;71.00
49413;DHT22;35493;50.276;9.372;2023-05-19T00:22:33;11.00;71.00
49413;DHT22;35493;50.276;9.372;2023-05-19T00:25:01;10.90;71.30
49413;DHT22;35493;50.276;9.372;2023-05-19T00:27:28;10.80;71.40
49413;DHT22;35493;50.276;9.372;2023-05-19T00:30:00;10.80;71.40
49413;DHT22;35493;50.276;9.372;2023-05-19T00:32:26;10.80;71.40
49413;DHT22;35493;50.276;9.372;2023-05-19T00:34:54;10.70;71.50
49413;DHT22;35493;50.276;9.372;2023-05-19T00:37:21;10.70;71.50
49413;DHT22;35493;50.276;9.372;2023-05-19T00:39:49;10.70;71.60
49413;DHT22;35493;50.276;9.372;2023-05-19T00:42:16;10.70;71.70
49413;DHT22;35493;50.276;9.372;2023-05-19T00:44:43;10.70;71.60
49413;DHT22;35493;50.276;9.372;2023-05-19T00:47:10;10.60;71.80
49413;DHT22;35493;50.276;9.372;2023-05-19T00:49:37;10.60;72.00
49413;DHT22;35493;50.276;9.372;2023-05-19T00:52:05;10.60;72.20
49413;DHT22;35493;50.276;9.372;2023-05-19T00:54:32;10.50;72.30
49413;DHT22;35493;50.276;9.372;2023-05-19T00:57:03;10.40;72.40
49413;DHT22;35493;50.276;9.372;2023-05-19T00:59:30;10.40;72.30
49413;DHT22;35493;50.276;9.372;2023-05-19T01:01:57;10.40;72.40
49413;DHT22;35493;50.276;9.372;2023-05-19T01:04:24;10.40;72.50
49413;DHT22;35493;50.276;9.372;2023-05-19T01:06:51;10.40;72.40
49413;DHT22;35493;50.276;9.372;2023-05-19T01:09:20;10.40;72.50
49413;DHT22;35493;50.276;9.372;2023-05-19T01:11:47;10.30;72.50
49413;DHT22;35493;50.276;9.372;2023-05-19T01:14:15;10.30;72.50
49413;DHT22;35493;50.276;9.372;2023-05-19T01:16:48;10.30;72.60
49413;DHT22;35493;50.276;9.372;2023-05-19T01:19:28;10.20;72.70
49413;DHT22;35493;50.276;9.372;2023-05-19T01:22:16;10.20;72.70
49413;DHT22;35493;50.276;9.372;2023-05-19T01:25:16;10.20;72.60
49413;DHT22;35493;50.276;9.372;2023-05-19T01:28:05;10.10;72.70
49413;DHT22;35493;50.276;9.372;2023-05-19T01:30:39;10.10;72.70
49413;DHT22;35493;50.276;9.372;2023-05-19T01:33:08;10.10;72.70
49413;DHT22;35493;50.276;9.372;2023-05-19T01:35:39;10.10;72.90
49413;DHT22;35493;50.276;9.372;2023-05-19T01:38:09;9.90;73.20
49413;DHT22;35493;50.276;9.372;2023-05-19T01:40:37;9.90;73.40
49413;DHT22;35493;50.276;9.372;2023-05-19T01:43:05;9.90;73.50
49413;DHT22;35493;50.276;9.372;2023-05-19T01:45:33;9.90;73.60
49413;DHT22;35493;50.276;9.372;2023-05-19T01:48:03;9.90;73.70
49413;DHT22;35493;50.276;9.372;2023-05-19T01:50:31;9.90;73.80
49413;DHT22;35493;50.276;9.372;2023-05-19T01:52:58;9.90;73.80
49413;DHT22;35493;50.276;9.372;2023-05-19T01:55:26;9.90;73.80
49413;DHT22;35493;50.276;9.372;2023-05-19T01:57:59;9.90;73.80
49413;DHT22;35493;50.276;9.372;2023-05-19T02:00:49;9.90;73.90
49413;DHT22;35493;50.276;9.372;2023-05-19T02:03:28;9.80;73.90
49413;DHT22;35493;50.276;9.372;2023-05-19T02:06:02;9.80;74.10
49413;DHT22;35493;50.276;9.372;2023-05-19T02:08:40;9.80;74.00
49413;DHT22;35493;50.276;9.372;2023-05-19T02:11:13;9.70;74.10
49413;DHT22;35493;50.276;9.372;2023-05-19T02:13:42;9.70;74.10
49413;DHT22;35493;50.276;9.372;2023-05-19T02:16:10;9.70;74.20
49413;DHT22;35493;50.276;9.372;2023-05-19T02:18:40;9.70;74.30
49413;DHT22;35493;50.276;9.372;2023-05-19T02:21:09;9.60;74.40
49413;DHT22;35493;50.276;9.372;2023-05-19T02:23:38;9.60;74.50
49413;DHT22;35493;50.276;9.372;2023-05-19T02:26:06;9.60;74.50
49413;DHT22;35493;50.276;9.372;2023-05-19T02:28:33;9.60;74.50
49413;DHT22;35493;50.276;9.372;2023-05-19T02:31:01;9.50;74.50
49413;DHT22;35493;50.276;9.372;2023-05-19T02:33:29;9.50;74.60
49413;DHT22;35493;50.276;9.372;2023-05-19T02:35:58;9.50;74.60
49413;DHT22;35493;50.276;9.372;2023-05-19T02:38:25;9.50;74.60
49413;DHT22;35493;50.276;9.372;2023-05-19T02:40:52;9.50;74.60
49413;DHT22;35493;50.276;9.372;2023-05-19T02:43:19;9.40;74.70
49413;DHT22;35493;50.276;9.372;2023-05-19T02:45:46;9.40;74.70
49413;DHT22;35493;50.276;9.372;2023-05-19T02:48:12;9.30;74.90
49413;DHT22;35493;50.276;9.372;2023-05-19T02:50:39;9.30;74.90
49413;DHT22;35493;50.276;9.372;2023-05-19T02:53:08;9.20;75.00
49413;DHT22;35493;50.276;9.372;2023-05-19T02:55:35;9.20;75.00
49413;DHT22;35493;50.276;9.372;2023-05-19T02:58:02;9.20;75.00
49413;DHT22;35493;50.276;9.372;2023-05-19T03:00:29;9.20;75.00
49413;DHT22;35493;50.276;9.372;2023-05-19T03:02:56;9.20;75.10
49413;DHT22;35493;50.276;9.372;2023-05-19T03:05:27;9.10;75.20
49413;DHT22;35493;50.276;9.372;2023-05-19T03:07:54;9.10;75.20
49413;DHT22;35493;50.276;9.372;2023-05-19T03:10:22;9.10;75.30
49413;DHT22;35493;50.276;9.372;2023-05-19T03:12:50;9.10;75.30
49413;DHT22;35493;50.276;9.372;2023-05-19T03:15:18;9.00;75.30
49413;DHT22;35493;50.276;9.372;2023-05-19T03:17:47;9.00;75.30
49413;DHT22;35493;50.276;9.372;2023-05-19T03:20:14;8.90;75.50
49413;DHT22;35493;50.276;9.372;2023-05-19T03:22:41;8.90;75.50
49413;DHT22;35493;50.276;9.372;2023-05-19T03:25:09;8.90;75.60
49413;DHT22;35493;50.276;9.372;2023-05-19T03:27:37;8.90;75.50
49413;DHT22;35493;50.276;9.372;2023-05-19T03:30:06;8.80;75.70
49413;DHT22;35493;50.276;9.372;2023-05-19T03:32:40;8.80;75.70
49413;DHT22;35493;50.276;9.372;2023-05-19T03:35:07;8.80;75.70
49413;DHT22;35493;50.276;9.372;2023-05-19T03:37:34;8.80;75.70
49413;DHT22;35493;50.276;9.372;2023-05-19T03:40:02;8.70;75.70
49413;DHT22;35493;50.276;9.372;2023-05-19T03:42:30;8.70;75.50
49413;DHT22;35493;50.276;9.372;2023-05-19T03:44:58;8.70;75.50
49413;DHT22;35493;50.276;9.372;2023-05-19T03:47:25;8.70;75.60
49413;DHT22;35493;50.276;9.372;2023-05-19T03:50:01;8.70;75.80
49413;DHT22;35493;50.276;9.372;2023-05-19T03:52:41;8.60;75.80
49413;DHT22;35493;50.276;9.372;2023-05-19T03:55:22;8.60;75.90
49413;DHT22;35493;50.276;9.372;2023-05-19T03:57:50;8.60;76.10
49413;DHT22;35493;50.276;9.372;2023-05-19T04:00:19;8.60;76.20
49413;DHT22;35493;50.276;9.372;2023-05-19T04:02:46;8.60;76.40
49413;DHT22;35493;50.276;9.372;2023-05-19T04:05:13;8.60;76.30
49413;DHT22;35493;50.276;9.372;2023-05-19T04:07:40;8.60;76.30
49413;DHT22;35493;50.276;9.372;2023-05-19T04:10:08;8.60;76.30
49413;DHT22;35493;50.276;9.372;2023-05-19T04:12:35;8.60;76.50
49413;DHT22;35493;50.276;9.372;2023-05-19T04:15:02;8.60;76.60
49413;DHT22;35493;50.276;9.372;2023-05-19T04:17:31;8.60;76.70
49413;DHT22;35493;50.276;9.372;2023-05-19T04:19:58;8.60;76.70
49413;DHT22;35493;50.276;9.372;2023-05-19T04:22:25;8.70;76.70
49413;DHT22;35493;50.276;9.372;2023-05-19T04:24:52;8.70;76.50
49413;DHT22;35493;50.276;9.372;2023-05-19T04:27:19;8.70;76.50
49413;DHT22;35493;50.276;9.372;2023-05-19T04:29:46;8.70;76.50
49413;DHT22;35493;50.276;9.372;2023-05-19T04:32:14;8.70;76.60
49413;DHT22;35493;50.276;9.372;2023-05-19T04:34:43;8.70;76.60
49413;DHT22;35493;50.276;9.372;2023-05-19T04:37:14;8.70;76.60
49413;DHT22;35493;50.276;9.372;2023-05-19T04:39:41;8.70;76.80
49413;DHT22;35493;50.276;9.372;2023-05-19T04:42:10;8.60;76.90
49413;DHT22;35493;50.276;9.372;2023-05-19T04:44:38;8.70;76.90
49413;DHT22;35493;50.276;9.372;2023-05-19T04:47:06;8.60;76.90
49413;DHT22;35493;50.276;9.372;2023-05-19T04:49:33;8.60;77.00
49413;DHT22;35493;50.276;9.372;2023-05-19T04:52:06;8.70;77.00
49413;DHT22;35493;50.276;9.372;2023-05-19T04:54:36;8.70;76.90
49413;DHT22;35493;50.276;9.372;2023-05-19T04:57:04;8.70;76.90
49413;DHT22;35493;50.276;9.372;2023-05-19T04:59:34;8.80;77.00
49413;DHT22;35493;50.276;9.372;2023-05-19T05:02:01;8.80;77.30
49413;DHT22;35493;50.276;9.372;2023-05-19T05:04:29;8.80;77.30
49413;DHT22;35493;50.276;9.372;2023-05-19T05:06:57;8.90;77.10
49413;DHT22;35493;50.276;9.372;2023-05-19T05:09:26;8.90;76.90
49413;DHT22;35493;50.276;9.372;2023-05-19T05:11:54;9.00;77.00
49413;DHT22;35493;50.276;9.372;2023-05-19T05:14:21;9.00;77.00
49413;DHT22;35493;50.276;9.372;2023-05-19T05:16:49;9.10;76.80
49413;DHT22;35493;50.276;9.372;2023-05-19T05:19:21;9.10;76.80
49413;DHT22;35493;50.276;9.372;2023-05-19T05:21:48;9.20;76.50
49413;DHT22;35493;50.276;9.372;2023-05-19T05:24:16;9.30;76.30
49413;DHT22;35493;50.276;9.372;2023-05-19T05:26:50;9.40;76.40
49413;DHT22;35493;50.276;9.372;2023-05-19T05:29:18;9.40;76.00
49413;DHT22;35493;50.276;9.372;2023-05-19T05:31:45;9.40;75.80
49413;DHT22;35493;50.276;9.372;2023-05-19T05:34:12;9.50;75.70
49413;DHT22;35493;50.276;9.372;2023-05-19T05:36:39;9.60;75.50
49413;DHT22;35493;50.276;9.372;2023-05-19T05:39:07;9.60;75.80
49413;DHT22;35493;50.276;9.372;2023-05-19T05:41:36;9.60;75.80
49413;DHT22;35493;50.276;9.372;2023-05-19T05:44:10;9.70;75.80
49413;DHT22;35493;50.276;9.372;2023-05-19T05:46:40;9.70;75.90
49413;DHT22;35493;50.276;9.372;2023-05-19T05:49:08;9.70;75.70
49413;DHT22;35493;50.276;9.372;2023-05-19T05:51:38;9.80;75.00
49413;DHT22;35493;50.276;9.372;2023-05-19T05:54:07;9.80;75.40
49413;DHT22;35493;50.276;9.372;2023-05-19T05:56:42;9.80;75.60
49413;DHT22;35493;50.276;9.372;2023-05-19T05:59:11;9.90;75.30
49413;DHT22;35493;50.276;9.372;2023-05-19T06:01:38;9.90;75.30
49413;DHT22;35493;50.276;9.372;2023-05-19T06:04:08;10.00;75.30
49413;DHT22;35493;50.276;9.372;2023-05-19T06:06:35;10.10;75.10
49413;DHT22;35493;50.276;9.372;2023-05-19T06:09:03;10.10;74.80
49413;DHT22;35493;50.276;9.372;2023-05-19T06:11:31;10.20;74.60
49413;DHT22;35493;50.276;9.372;2023-05-19T06:13:58;10.30;74.30
49413;DHT22;35493;50.276;9.372;2023-05-19T06:17:03;10.40;74.30
49413;DHT22;35493;50.276;9.372;2023-05-19T06:19:31;10.40;73.90
49413;DHT22;35493;50.276;9.372;2023-05-19T06:21:58;10.40;73.30
49413;DHT22;35493;50.276;9.372;2023-05-19T06:24:25;10.50;74.00
49413;DHT22;35493;50.276;9.372;2023-05-19T06:26:52;10.50;74.10
49413;DHT22;35493;50.276;9.372;2023-05-19T06:29:18;10.60;74.00
49413;DHT22;35493;50.276;9.372;2023-05-19T06:31:46;10.70;74.00
49413;DHT22;35493;50.276;9.372;2023-05-19T06:34:17;10.70;74.10
49413;DHT22;35493;50.276;9.372;2023-05-19T06:36:46;10.90;74.10
49413;DHT22;35493;50.276;9.372;2023-05-19T06:39:13;10.90;74.30
49413;DHT22;35493;50.276;9.372;2023-05-19T06:41:40;11.00;74.20
49413;DHT22;35493;50.276;9.372;2023-05-19T06:44:07;11.10;73.80
49413;DHT22;35493;50.276;9.372;2023-05-19T06:46:34;11.10;73.70
49413;DHT22;35493;50.276;9.372;2023-05-19T06:49:09;11.20;73.50
49413;DHT22;35493;50.276;9.372;2023-05-19T06:51:45;11.30;73.20
49413;DHT22;35493;50.276;9.372;2023-05-19T06:54:12;11.40;72.60
49413;DHT22;35493;50.276;9.372;2023-05-19T06:56:40;11.50;72.10
49413;DHT22;35493;50.276;9.372;2023-05-19T06:59:07;11.60;71.80
49413;DHT22;35493;50.276;9.372;2023-05-19T07:01:36;11.70;71.90
49413;DHT22;35493;50.276;9.372;2023-05-19T07:04:03;11.70;71.60
49413;DHT22;35493;50.276;9.372;2023-05-19T07:06:30;11.90;71.50
49413;DHT22;35493;50.276;9.372;2023-05-19T07:08:59;12.00;71.20
49413;DHT22;35493;50.276;9.372;2023-05-19T07:11:27;12.10;71.10
49413;DHT22;35493;50.276;9.372;2023-05-19T07:13:55;12.10;71.20
49413;DHT22;35493;50.276;9.372;2023-05-19T07:16:26;12.20;70.70
49413;DHT22;35493;50.276;9.372;2023-05-19T07:18:54;12.30;70.50
49413;DHT22;35493;50.276;9.372;2023-05-19T07:21:21;12.50;70.60
49413;DHT22;35493;50.276;9.372;2023-05-19T07:23:49;12.60;70.00
49413;DHT22;35493;50.276;9.372;2023-05-19T07:26:17;12.60;69.50
49413;DHT22;35493;50.276;9.372;2023-05-19T07:28:44;12.70;69.00
49413;DHT22;35493;50.276;9.372;2023-05-19T07:31:11;12.70;68.70
49413;DHT22;35493;50.276;9.372;2023-05-19T07:33:38;12.80;68.70
49413;DHT22;35493;50.276;9.372;2023-05-19T07:36:05;12.90;68.10
49413;DHT22;35493;50.276;9.372;2023-05-19T07:38:35;13.20;66.90
49413;DHT22;35493;50.276;9.372;2023-05-19T07:41:02;13.30;66.70
49413;DHT22;35493;50.276;9.372;2023-05-19T07:43:30;13.50;66.70
49413;DHT22;35493;50.276;9.372;2023-05-19T07:45:57;13.60;66.10
49413;DHT22;35493;50.276;9.372;2023-05-19T07:48:24;13.70;65.80
49413;DHT22;35493;50.276;9.372;2023-05-19T07:50:51;13.70;66.10
49413;DHT22;35493;50.276;9.372;2023-05-19T07:53:18;13.80;65.40
49413;DHT22;35493;50.276;9.372;2023-05-19T07:55:47;14.00;64.90
49413;DHT22;35493;50.276;9.372;2023-05-19T07:58:14;14.10;64.70
49413;DHT22;35493;50.276;9.372;2023-05-19T08:00:43;14.40;64.10
49413;DHT22;35493;50.276;9.372;2023-05-19T08:03:10;14.70;63.80
49413;DHT22;35493;50.276;9.372;2023-05-19T08:05:37;14.90;63.00
49413;DHT22;35493;50.276;9.372;2023-05-19T08:08:05;15.10;62.10
49413;DHT22;35493;50.276;9.372;2023-05-19T08:10:32;15.40;60.80
49413;DHT22;35493;50.276;9.372;2023-05-19T08:12:59;15.50;60.60
49413;DHT22;35493;50.276;9.372;2023-05-19T08:15:26;15.60;60.00
49413;DHT22;35493;50.276;9.372;2023-05-19T08:17:54;15.70;59.70
49413;DHT22;35493;50.276;9.372;2023-05-19T08:20:21;15.90;58.30
49413;DHT22;35493;50.276;9.372;2023-05-19T08:22:48;16.00;58.40
49413;DHT22;35493;50.276;9.372;2023-05-19T08:25:15;16.10;58.40
49413;DHT22;35493;50.276;9.372;2023-05-19T08:27:44;16.20;58.70
49413;DHT22;35493;50.276;9.372;2023-05-19T08:30:11;16.30;57.80
49413;DHT22;35493;50.276;9.372;2023-05-19T08:32:38;16.40;57.40
49413;DHT22;35493;50.276;9.372;2023-05-19T08:35:08;16.50;57.40
49413;DHT22;35493;50.276;9.372;2023-05-19T08:37:35;16.60;56.80
49413;DHT22;35493;50.276;9.372;2023-05-19T08:40:03;16.70;56.40
49413;DHT22;35493;50.276;9.372;2023-05-19T08:42:31;16.80;55.10
49413;DHT22;35493;50.276;9.372;2023-05-19T08:44:58;16.90;56.10
49413;DHT22;35493;50.276;9.372;2023-05-19T08:47:25;17.10;55.80
49413;DHT22;35493;50.276;9.372;2023-05-19T08:49:58;17.10;55.70
49413;DHT22;35493;50.276;9.372;2023-05-19T08:52:34;17.20;55.20
49413;DHT22;35493;50.276;9.372;2023-05-19T08:55:08;17.30;55.30
49413;DHT22;35493;50.276;9.372;2023-05-19T08:57:39;17.40;54.60
49413;DHT22;35493;50.276;9.372;2023-05-19T09:00:07;17.50;54.20
49413;DHT22;35493;50.276;9.372;2023-05-19T09:02:36;17.70;53.70
49413;DHT22;35493;50.276;9.372;2023-05-19T09:05:04;17.80;52.90
49413;DHT22;35493;50.276;9.372;2023-05-19T09:07:35;17.90;52.70
49413;DHT22;35493;50.276;9.372;2023-05-19T09:10:03;18.00;52.90
49413;DHT22;35493;50.276;9.372;2023-05-19T09:12:30;18.20;52.50
49413;DHT22;35493;50.276;9.372;2023-05-19T09:14:59;18.20;52.50
49413;DHT22;35493;50.276;9.372;2023-05-19T09:17:26;18.20;52.70
49413;DHT22;35493;50.276;9.372;2023-05-19T09:19:54;18.40;51.90
49413;DHT22;35493;50.276;9.372;2023-05-19T09:22:21;18.60;51.00
49413;DHT22;35493;50.276;9.372;2023-05-19T09:24:49;18.70;51.70
49413;DHT22;35493;50.276;9.372;2023-05-19T09:27:20;18.80;50.10
49413;DHT22;35493;50.276;9.372;2023-05-19T09:29:48;18.80;51.10
49413;DHT22;35493;50.276;9.372;2023-05-19T09:32:23;18.90;51.20
49413;DHT22;35493;50.276;9.372;2023-05-19T09:34:50;19.10;50.90
49413;DHT22;35493;50.276;9.372;2023-05-19T09:37:21;19.10;49.90
49413;DHT22;35493;50.276;9.372;2023-05-19T09:39:50;19.10;50.10
49413;DHT22;35493;50.276;9.372;2023-05-19T09:42:23;19.20;49.40
49413;DHT22;35493;50.276;9.372;2023-05-19T09:44:58;19.30;48.80
49413;DHT22;35493;50.276;9.372;2023-05-19T09:47:25;19.20;49.30
49413;DHT22;35493;50.276;9.372;2023-05-19T09:49:53;19.20;49.70
49413;DHT22;35493;50.276;9.372;2023-05-19T09:52:21;19.30;50.30
49413;DHT22;35493;50.276;9.372;2023-05-19T09:54:49;19.40;49.80
49413;DHT22;35493;50.276;9.372;2023-05-19T09:57:16;19.40;49.90
49413;DHT22;35493;50.276;9.372;2023-05-19T09:59:43;19.50;49.50
49413;DHT22;35493;50.276;9.372;2023-05-19T10:02:15;19.60;49.50
49413;DHT22;35493;50.276;9.372;2023-05-19T10:04:44;19.60;49.70
49413;DHT22;35493;50.276;9.372;2023-05-19T10:07:13;19.70;50.20
49413;DHT22;35493;50.276;9.372;2023-05-19T10:09:41;19.70;49.00
49413;DHT22;35493;50.276;9.372;2023-05-19T10:12:11;19.90;48.70
49413;DHT22;35493;50.276;9.372;2023-05-19T10:14:39;20.00;48.50
49413;DHT22;35493;50.276;9.372;2023-05-19T10:17:07;20.10;47.60
49413;DHT22;35493;50.276;9.372;2023-05-19T10:19:35;20.10;47.90
49413;DHT22;35493;50.276;9.372;2023-05-19T10:22:03;20.10;48.10
49413;DHT22;35493;50.276;9.372;2023-05-19T10:24:30;20.00;47.50
49413;DHT22;35493;50.276;9.372;2023-05-19T10:27:00;20.00;47.00
49413;DHT22;35493;50.276;9.372;2023-05-19T10:29:33;19.90;47.10
49413;DHT22;35493;50.276;9.372;2023-05-19T10:32:07;19.90;47.10
49413;DHT22;35493;50.276;9.372;2023-05-19T10:34:54;20.00;47.10
49413;DHT22;35493;50.276;9.372;2023-05-19T10:37:30;20.00;47.10
49413;DHT22;35493;50.276;9.372;2023-05-19T10:39:59;19.90;47.30
49413;DHT22;35493;50.276;9.372;2023-05-19T10:42:37;19.90;47.60
49413;DHT22;35493;50.276;9.372;2023-05-19T10:45:12;19.80;47.20
49413;DHT22;35493;50.276;9.372;2023-05-19T10:47:42;19.90;47.20
49413;DHT22;35493;50.276;9.372;2023-05-19T10:50:10;19.90;46.70
49413;DHT22;35493;50.276;9.372;2023-05-19T10:52:38;19.80;46.10
49413;DHT22;35493;50.276;9.372;2023-05-19T10:55:07;19.80;46.00
49413;DHT22;35493;50.276;9.372;2023-05-19T10:57:34;19.80;45.80
49413;DHT22;35493;50.276;9.372;2023-05-19T11:00:03;19.80;46.00
49413;DHT22;35493;50.276;9.372;2023-05-19T11:02:39;19.90;45.50
49413;DHT22;35493;50.276;9.372;2023-05-19T11:05:07;20.00;45.30
49413;DHT22;35493;50.276;9.372;2023-05-19T11:07:35;20.10;45.10
49413;DHT22;35493;50.276;9.372;2023-05-19T11:10:05;20.20;45.40
49413;DHT22;35493;50.276;9.372;2023-05-19T11:12:39;20.40;45.00
49413;DHT22;35493;50.276;9.372;2023-05-19T11:15:10;20.60;45.30
49413;DHT22;35493;50.276;9.372;2023-05-19T11:17:38;20.70;45.50
49413;DHT22;35493;50.276;9.372;2023-05-19T11:20:08;20.90;45.50
49413;DHT22;35493;50.276;9.372;2023-05-19T11:23:00;21.00;44.50
49413;DHT22;35493;50.276;9.372;2023-05-19T11:25:40;21.00;44.50
49413;DHT22;35493;50.276;9.372;2023-05-19T11:28:09;21.10;44.30
49413;DHT22;35493;50.276;9.372;2023-05-19T11:30:38;21.30;43.50
49413;DHT22;35493;50.276;9.372;2023-05-19T11:33:08;21.40;43.40
49413;DHT22;35493;50.276;9.372;2023-05-19T11:35:35;21.50;43.20
49413;DHT22;35493;50.276;9.372;2023-05-19T11:38:02;21.30;43.20
49413;DHT22;35493;50.276;9.372;2023-05-19T11:40:29;21.20;42.70
49413;DHT22;35493;50.276;9.372;2023-05-19T11:42:57;20.90;42.90
49413;DHT22;35493;50.276;9.372;2023-05-19T11:45:26;20.90;43.50
49413;DHT22;35493;50.276;9.372;2023-05-19T11:47:54;21.10;44.50
49413;DHT22;35493;50.276;9.372;2023-05-19T11:50:23;21.30;43.70
49413;DHT22;35493;50.276;9.372;2023-05-19T11:52:51;21.40;43.00
49413;DHT22;35493;50.276;9.372;2023-05-19T11:55:18;21.40;43.50
49413;DHT22;35493;50.276;9.372;2023-05-19T11:57:55;21.40;42.70
49413;DHT22;35493;50.276;9.372;2023-05-19T12:00:23;21.60;42.90
49413;DHT22;35493;50.276;9.372;2023-05-19T12:02:50;21.70;42.50
49413;DHT22;35493;50.276;9.372;2023-05-19T12:05:18;21.70;43.20
49413;DHT22;35493;50.276;9.372;2023-05-19T12:07:47;21.70;42.60
49413;DHT22;35493;50.276;9.372;2023-05-19T12:10:16;21.80;42.30
49413;DHT22;35493;50.276;9.372;2023-05-19T12:12:44;22.00;42.20
49413;DHT22;35493;50.276;9.372;2023-05-19T12:15:11;22.10;41.80
49413;DHT22;35493;50.276;9.372;2023-05-19T12:17:38;21.90;40.90
49413;DHT22;35493;50.276;9.372;2023-05-19T12:20:06;21.90;41.50
49413;DHT22;35493;50.276;9.372;2023-05-19T12:22:34;21.70;40.50
49413;DHT22;35493;50.276;9.372;2023-05-19T12:25:03;21.60;40.80
49413;DHT22;35493;50.276;9.372;2023-05-19T12:27:33;21.50;41.90
49413;DHT22;35493;50.276;9.372;2023-05-19T12:30:03;21.40;41.30
49413;DHT22;35493;50.276;9.372;2023-05-19T12:32:31;21.30;42.20
49413;DHT22;35493;50.276;9.372;2023-05-19T12:35:01;21.20;41.70
49413;DHT22;35493;50.276;9.372;2023-05-19T12:37:28;21.20;42.20
49413;DHT22;35493;50.276;9.372;2023-05-19T12:39:56;21.10;42.30
49413;DHT22;35493;50.276;9.372;2023-05-19T12:42:26;21.10;42.30
49413;DHT22;35493;50.276;9.372;2023-05-19T12:44:56;21.10;42.20
49413;DHT22;35493;50.276;9.372;2023-05-19T12:47:29;21.10;42.60
49413;DHT22;35493;50.276;9.372;2023-05-19T12:50:00;21.10;42.60
49413;DHT22;35493;50.276;9.372;2023-05-19T12:52:29;21.10;42.00
49413;DHT22;35493;50.276;9.372;2023-05-19T12:54:57;21.10;41.90
49413;DHT22;35493;50.276;9.372;2023-05-19T12:57:27;21.10;42.20
49413;DHT22;35493;50.276;9.372;2023-05-19T12:59:59;21.00;42.20
49413;DHT22;35493;50.276;9.372;2023-05-19T13:02:26;21.00;42.30
49413;DHT22;35493;50.276;9.372;2023-05-19T13:04:53;21.10;42.60
49413;DHT22;35493;50.276;9.372;2023-05-19T13:07:20;21.10;42.30
49413;DHT22;35493;50.276;9.372;2023-05-19T13:09:47;21.20;42.70
49413;DHT22;35493;50.276;9.372;2023-05-19T13:12:14;21.20;43.00
49413;DHT22;35493;50.276;9.372;2023-05-19T13:14:43;21.20;43.00
49413;DHT22;35493;50.276;9.372;2023-05-19T13:17:10;21.20;43.60
49413;DHT22;35493;50.276;9.372;2023-05-19T13:19:37;21.20;43.90
49413;DHT22;35493;50.276;9.372;2023-05-19T13:22:04;21.20;43.50
49413;DHT22;35493;50.276;9.372;2023-05-19T13:24:31;21.20;43.90
49413;DHT22;35493;50.276;9.372;2023-05-19T13:26:58;21.20;43.90
49413;DHT22;35493;50.276;9.372;2023-05-19T13:29:24;21.20;44.20
49413;DHT22;35493;50.276;9.372;2023-05-19T13:31:54;21.10;43.60
49413;DHT22;35493;50.276;9.372;2023-05-19T13:34:21;21.10;43.90
49413;DHT22;35493;50.276;9.372;2023-05-19T13:36:47;21.10;43.40
49413;DHT22;35493;50.276;9.372;2023-05-19T13:39:15;21.10;44.10
49413;DHT22;35493;50.276;9.372;2023-05-19T13:41:42;21.20;43.90
49413;DHT22;35493;50.276;9.372;2023-05-19T13:44:09;21.10;44.20
49413;DHT22;35493;50.276;9.372;2023-05-19T13:46:35;21.10;43.80
49413;DHT22;35493;50.276;9.372;2023-05-19T13:49:04;21.10;44.10
49413;DHT22;35493;50.276;9.372;2023-05-19T13:51:31;21.10;43.80
49413;DHT22;35493;50.276;9.372;2023-05-19T13:53:58;21.10;44.50
49413;DHT22;35493;50.276;9.372;2023-05-19T13:56:25;21.00;43.00
49413;DHT22;35493;50.276;9.372;2023-05-19T13:58:52;21.00;43.80
49413;DHT22;35493;50.276;9.372;2023-05-19T14:01:19;21.00;44.10
49413;DHT22;35493;50.276;9.372;2023-05-19T14:03:46;21.00;44.20
49413;DHT22;35493;50.276;9.372;2023-05-19T14:06:15;21.00;43.30
49413;DHT22;35493;50.276;9.372;2023-05-19T14:08:42;21.00;43.70
49413;DHT22;35493;50.276;9.372;2023-05-19T14:11:09;21.00;43.70
49413;DHT22;35493;50.276;9.372;2023-05-19T14:13:36;21.00;43.50
49413;DHT22;35493;50.276;9.372;2023-05-19T14:16:03;21.00;43.30
49413;DHT22;35493;50.276;9.372;2023-05-19T14:18:30;21.00;43.40
49413;DHT22;35493;50.276;9.372;2023-05-19T14:20:57;21.00;43.40
49413;DHT22;35493;50.276;9.372;2023-05-19T14:23:25;21.00;43.50
49413;DHT22;35493;50.276;9.372;2023-05-19T14:25:54;21.00;43.40
49413;DHT22;35493;50.276;9.372;2023-05-19T14:28:21;21.00;43.80
49413;DHT22;35493;50.276;9.372;2023-05-19T14:30:48;21.10;43.60
49413;DHT22;35493;50.276;9.372;2023-05-19T14:33:16;21.10;43.60
49413;DHT22;35493;50.276;9.372;2023-05-19T14:35:43;21.00;44.00
49413;DHT22;35493;50.276;9.372;2023-05-19T14:38:11;21.10;43.40
49413;DHT22;35493;50.276;9.372;2023-05-19T14:40:39;21.00;43.70
49413;DHT22;35493;50.276;9.372;2023-05-19T14:43:06;21.00;43.20
49413;DHT22;35493;50.276;9.372;2023-05-19T14:45:33;20.90;43.70
49413;DHT22;35493;50.276;9.372;2023-05-19T14:48:00;21.00;44.00
49413;DHT22;35493;50.276;9.372;2023-05-19T14:50:27;21.00;43.40
49413;DHT22;35493;50.276;9.372;2023-05-19T14:52:55;20.90;43.50
49413;DHT22;35493;50.276;9.372;2023-05-19T14:55:22;20.90;43.60
49413;DHT22;35493;50.276;9.372;2023-05-19T14:57:50;20.90;43.70
49413;DHT22;35493;50.276;9.372;2023-05-19T15:00:18;20.90;44.10
49413;DHT22;35493;50.276;9.372;2023-05-19T15:02:45;20.90;44.20
49413;DHT22;35493;50.276;9.372;2023-05-19T15:05:12;20.90;44.60
49413;DHT22;35493;50.276;9.372;2023-05-19T15:07:39;20.80;44.10
49413;DHT22;35493;50.276;9.372;2023-05-19T15:10:06;20.80;44.40
49413;DHT22;35493;50.276;9.372;2023-05-19T15:12:33;20.70;43.70
49413;DHT22;35493;50.276;9.372;2023-05-19T15:15:02;20.70;43.10
49413;DHT22;35493;50.276;9.372;2023-05-19T15:17:29;20.60;43.30
49413;DHT22;35493;50.276;9.372;2023-05-19T15:19:56;20.60;43.70
49413;DHT22;35493;50.276;9.372;2023-05-19T15:22:23;20.50;43.90
49413;DHT22;35493;50.276;9.372;2023-05-19T15:24:50;20.40;44.30
49413;DHT22;35493;50.276;9.372;2023-05-19T15:27:17;20.50;44.40
49413;DHT22;35493;50.276;9.372;2023-05-19T15:29:45;20.50;44.00
49413;DHT22;35493;50.276;9.372;2023-05-19T15:32:13;20.40;44.20
49413;DHT22;35493;50.276;9.372;2023-05-19T15:34:40;20.30;43.90
49413;DHT22;35493;50.276;9.372;2023-05-19T15:37:07;20.20;44.00
49413;DHT22;35493;50.276;9.372;2023-05-19T15:39:49;20.20;44.30
49413;DHT22;35493;50.276;9.372;2023-05-19T15:42:22;20.10;44.30
49413;DHT22;35493;50.276;9.372;2023-05-19T15:44:48;20.10;44.50